sensor_id;sensor_type;location;lat;lon;timestamp;pressure;altitude;pressure_sealevel;temperature;humidity
74310;BME280;62722;51.142;17.052;2022-09-09T00:02:00;100016.88;;;15.75;100.00
74310;BME280;62722;51.142;17.052;2022-09-09T00:04:29;100020.78;;;15.71;100.00
74310;BME280;62722;51.142;17.052;2022-09-09T00:07:03;100019.94;;;15.61;100.00
74310;BME280;62722;51.142;17.052;2022-09-09T00:09:35;100022.03;;;15.57;100.00
74310;BME280;62722;51.142;17.052;2022-09-09T00:12:10;100016.59;;;15.58;100.00
74310;BME280;62722;51.142;17.052;2022-09-09T00:14:43;100017.41;;;15.49;100.00
74310;BME280;62722;51.142;17.052;2022-09-09T00:17:20;100023.81;;;15.47;100.00
74310;BME280;62722;51.142;17.052;2022-09-09T00:19:55;100022.53;;;15.41;100.00
74310;BME280;62722;51.142;17.052;2022-09-09T00:22:25;100018.63;;;15.36;100.00
74310;BME280;62722;51.142;17.052;2022-09-09T00:25:02;100015.97;;;15.36;100.00
74310;BME280;62722;51.142;17.052;2022-09-09T00:27:41;100021.97;;;15.38;100.00
74310;BME280;62722;51.142;17.052;2022-09-09T00:30:15;100021.56;;;15.33;100.00
74310;BME280;62722;51.142;17.052;2022-09-09T00:32:45;100022.09;;;15.27;100.00
74310;BME280;62722;51.142;17.052;2022-09-09T00:35:17;100027.56;;;15.25;100.00
74310;BME280;62722;51.142;17.052;2022-09-09T00:37:46;100025.19;;;15.22;100.00
74310;BME280;62722;51.142;17.052;2022-09-09T00:40:22;100023.47;;;15.21;100.00
74310;BME280;62722;51.142;17.052;2022-09-09T00:42:58;100014.53;;;15.22;100.00
74310;BME280;62722;51.142;17.052;2022-09-09T00:46:09;100019.41;;;15.17;100.00
74310;BME280;62722;51.142;17.052;2022-09-09T00:48:47;100025.13;;;15.13;100.00
74310;BME280;62722;51.142;17.052;2022-09-09T00:51:24;100024.28;;;15.12;100.00
74310;BME280;62722;51.142;17.052;2022-09-09T00:54:06;100029.59;;;15.12;100.00
74310;BME280;62722;51.142;17.052;2022-09-09T00:56:45;100022.34;;;15.14;100.00
74310;BME280;62722;51.142;17.052;2022-09-09T00:59:24;100029.75;;;15.10;100.00
74310;BME280;62722;51.142;17.052;2022-09-09T01:01:54;100025.41;;;15.09;100.00
74310;BME280;62722;51.142;17.052;2022-09-09T01:04:29;100023.59;;;15.10;100.00
74310;BME280;62722;51.142;17.052;2022-09-09T01:07:04;100026.09;;;15.11;100.00
74310;BME280;62722;51.142;17.052;2022-09-09T01:09:40;100031.56;;;15.10;100.00
74310;BME280;62722;51.142;17.052;2022-09-09T01:12:14;100029.88;;;15.09;100.00
74310;BME280;62722;51.142;17.052;2022-09-09T01:14:45;100040.22;;;15.02;100.00
74310;BME280;62722;51.142;17.052;2022-09-09T01:17:17;100034.75;;;15.04;100.00
74310;BME280;62722;51.142;17.052;2022-09-09T01:19:58;100035.75;;;15.03;100.00
74310;BME280;62722;51.142;17.052;2022-09-09T01:22:34;100030.94;;;14.97;100.00
74310;BME280;62722;51.142;17.052;2022-09-09T01:25:20;100034.75;;;15.04;100.00
74310;BME280;62722;51.142;17.052;2022-09-09T01:27:53;100038.66;;;15.00;99.71
74310;BME280;62722;51.142;17.052;2022-09-09T01:30:22;100040.75;;;14.96;100.00
74310;BME280;62722;51.142;17.052;2022-09-09T01:32:51;100049.13;;;14.92;99.76
74310;BME280;62722;51.142;17.052;2022-09-09T01:35:29;100050.34;;;14.88;99.93
74310;BME280;62722;51.142;17.052;2022-09-09T01:37:58;100048.47;;;14.79;99.78
74310;BME280;62722;51.142;17.052;2022-09-09T01:40:26;100044.56;;;14.73;100.00
74310;BME280;62722;51.142;17.052;2022-09-09T01:42:56;100043.97;;;14.70;100.00
74310;BME280;62722;51.142;17.052;2022-09-09T01:45:24;100043.25;;;14.68;100.00
74310;BME280;62722;51.142;17.052;2022-09-09T01:47:52;100045.31;;;14.64;100.00
74310;BME280;62722;51.142;17.052;2022-09-09T01:50:20;100048.13;;;14.63;100.00
74310;BME280;62722;51.142;17.052;2022-09-09T01:52:50;100050.22;;;14.59;100.00
74310;BME280;62722;51.142;17.052;2022-09-09T01:55:23;100052.88;;;14.59;100.00
74310;BME280;62722;51.142;17.052;2022-09-09T01:58:03;100053.44;;;14.63;100.00
74310;BME280;62722;51.142;17.052;2022-09-09T02:00:33;100051.19;;;14.58;100.00
74310;BME280;62722;51.142;17.052;2022-09-09T02:03:08;100063.34;;;14.60;100.00
74310;BME280;62722;51.142;17.052;2022-09-09T02:05:41;100058.19;;;14.59;100.00
74310;BME280;62722;51.142;17.052;2022-09-09T02:08:14;100064.56;;;14.56;100.00
74310;BME280;62722;51.142;17.052;2022-09-09T02:10:47;100056.28;;;14.50;99.86
74310;BME280;62722;51.142;17.052;2022-09-09T02:13:20;100062.84;;;14.46;99.77
74310;BME280;62722;51.142;17.052;2022-09-09T02:15:53;100068.03;;;14.47;100.00
74310;BME280;62722;51.142;17.052;2022-09-09T02:18:27;100070.69;;;14.47;100.00
74310;BME280;62722;51.142;17.052;2022-09-09T02:20:56;100063.78;;;14.45;100.00
74310;BME280;62722;51.142;17.052;2022-09-09T02:23:24;100062.25;;;14.42;99.71
74310;BME280;62722;51.142;17.052;2022-09-09T02:25:53;100076.75;;;14.38;100.00
74310;BME280;62722;51.142;17.052;2022-09-09T02:28:24;100071.44;;;14.38;100.00
74310;BME280;62722;51.142;17.052;2022-09-09T02:30:53;100077.97;;;14.34;99.99
74310;BME280;62722;51.142;17.052;2022-09-09T02:33:22;100078.47;;;14.28;99.69
74310;BME280;62722;51.142;17.052;2022-09-09T02:35:53;100078.72;;;14.25;99.83
74310;BME280;62722;51.142;17.052;2022-09-09T02:38:29;100082.59;;;14.21;100.00
74310;BME280;62722;51.142;17.052;2022-09-09T02:40:58;100084.69;;;14.18;99.86
74310;BME280;62722;51.142;17.052;2022-09-09T02:43:31;100087.72;;;14.13;99.60
74310;BME280;62722;51.142;17.052;2022-09-09T02:46:03;100087.97;;;14.10;99.88
74310;BME280;62722;51.142;17.052;2022-09-09T02:48:43;100092.06;;;14.14;100.00
74310;BME280;62722;51.142;17.052;2022-09-09T02:51:19;100095.66;;;14.13;99.69
74310;BME280;62722;51.142;17.052;2022-09-09T02:53:58;100092.53;;;14.08;99.40
74310;BME280;62722;51.142;17.052;2022-09-09T02:56:30;100086.78;;;14.03;99.87
74310;BME280;62722;51.142;17.052;2022-09-09T02:59:03;100096.22;;;13.96;99.80
74310;BME280;62722;51.142;17.052;2022-09-09T03:01:30;100094.06;;;13.90;99.76
74310;BME280;62722;51.142;17.052;2022-09-09T03:03:57;100094.91;;;13.90;100.00
74310;BME280;62722;51.142;17.052;2022-09-09T03:06:24;100088.13;;;13.97;100.00
74310;BME280;62722;51.142;17.052;2022-09-09T03:08:52;100090.16;;;14.05;100.00
74310;BME280;62722;51.142;17.052;2022-09-09T03:11:19;100097.22;;;14.15;100.00
74310;BME280;62722;51.142;17.052;2022-09-09T03:13:47;100097.22;;;14.15;100.00
74310;BME280;62722;51.142;17.052;2022-09-09T03:16:16;100097.84;;;14.08;99.35
74310;BME280;62722;51.142;17.052;2022-09-09T03:18:43;100097.88;;;13.97;99.18
74310;BME280;62722;51.142;17.052;2022-09-09T03:21:10;100104.66;;;13.90;99.08
74310;BME280;62722;51.142;17.052;2022-09-09T03:23:37;100103.03;;;13.78;99.37
74310;BME280;62722;51.142;17.052;2022-09-09T03:26:04;100104.47;;;13.82;100.00
74310;BME280;62722;51.142;17.052;2022-09-09T03:28:32;100107.09;;;13.93;100.00
74310;BME280;62722;51.142;17.052;2022-09-09T03:30:59;100102.22;;;13.98;100.00
74310;BME280;62722;51.142;17.052;2022-09-09T03:33:28;100104.44;;;13.93;99.42
74310;BME280;62722;51.142;17.052;2022-09-09T03:35:56;100110.13;;;13.88;100.00
74310;BME280;62722;51.142;17.052;2022-09-09T03:38:23;100107.94;;;13.82;99.67
74310;BME280;62722;51.142;17.052;2022-09-09T03:40:50;100113.66;;;13.78;99.74
74310;BME280;62722;51.142;17.052;2022-09-09T03:43:21;100115.91;;;13.82;100.00
74310;BME280;62722;51.142;17.052;2022-09-09T03:45:48;100110.84;;;13.79;99.74
74310;BME280;62722;51.142;17.052;2022-09-09T03:48:15;100110.16;;;13.77;99.49
74310;BME280;62722;51.142;17.052;2022-09-09T03:50:49;100114.13;;;13.72;99.13
74310;BME280;62722;51.142;17.052;2022-09-09T03:53:18;100116.06;;;13.70;99.29
74310;BME280;62722;51.142;17.052;2022-09-09T03:55:47;100122.69;;;13.64;99.34
74310;BME280;62722;51.142;17.052;2022-09-09T03:58:15;100121.03;;;13.63;99.43
74310;BME280;62722;51.142;17.052;2022-09-09T04:00:53;100121.41;;;13.58;99.06
74310;BME280;62722;51.142;17.052;2022-09-09T04:03:20;100121.66;;;13.55;99.47
74310;BME280;62722;51.142;17.052;2022-09-09T04:05:50;100127.19;;;13.52;99.58
74310;BME280;62722;51.142;17.052;2022-09-09T04:08:17;100122.97;;;13.50;99.75
74310;BME280;62722;51.142;17.052;2022-09-09T04:10:44;100118.63;;;13.49;99.88
74310;BME280;62722;51.142;17.052;2022-09-09T04:13:12;100113.69;;;13.44;99.96
74310;BME280;62722;51.142;17.052;2022-09-09T04:15:42;100124.16;;;13.46;100.00
74310;BME280;62722;51.142;17.052;2022-09-09T04:18:09;100129.72;;;13.43;100.00
74310;BME280;62722;51.142;17.052;2022-09-09T04:20:37;100119.72;;;13.35;100.00
74310;BME280;62722;51.142;17.052;2022-09-09T04:23:05;100131.06;;;13.37;99.81
74310;BME280;62722;51.142;17.052;2022-09-09T04:25:33;100135.63;;;13.35;99.82
74310;BME280;62722;51.142;17.052;2022-09-09T04:28:00;100123.72;;;13.30;99.58
74310;BME280;62722;51.142;17.052;2022-09-09T04:30:28;100135.16;;;13.30;100.00
74310;BME280;62722;51.142;17.052;2022-09-09T04:32:56;100137.31;;;13.25;100.00
74310;BME280;62722;51.142;17.052;2022-09-09T04:35:23;100132.03;;;13.25;100.00
74310;BME280;62722;51.142;17.052;2022-09-09T04:37:50;100141.66;;;13.26;100.00
74310;BME280;62722;51.142;17.052;2022-09-09T04:40:22;100134.78;;;13.24;100.00
74310;BME280;62722;51.142;17.052;2022-09-09T04:42:49;100138.41;;;13.23;100.00
74310;BME280;62722;51.142;17.052;2022-09-09T04:45:16;100133.94;;;13.23;100.00
74310;BME280;62722;51.142;17.052;2022-09-09T04:47:44;100138.28;;;13.24;100.00
74310;BME280;62722;51.142;17.052;2022-09-09T04:50:11;100138.03;;;13.27;100.00
74310;BME280;62722;51.142;17.052;2022-09-09T04:52:38;100135.50;;;13.37;100.00
74310;BME280;62722;51.142;17.052;2022-09-09T04:55:07;100131.28;;;13.34;100.00
74310;BME280;62722;51.142;17.052;2022-09-09T04:57:36;100136.38;;;13.37;100.00
74310;BME280;62722;51.142;17.052;2022-09-09T05:00:04;100139.22;;;13.34;100.00
74310;BME280;62722;51.142;17.052;2022-09-09T05:02:32;100140.47;;;13.30;100.00
74310;BME280;62722;51.142;17.052;2022-09-09T05:04:59;100137.06;;;13.28;100.00
74310;BME280;62722;51.142;17.052;2022-09-09T05:07:26;100141.28;;;13.31;100.00
74310;BME280;62722;51.142;17.052;2022-09-09T05:09:54;100149.03;;;13.34;100.00
74310;BME280;62722;51.142;17.052;2022-09-09T05:12:22;100138.03;;;13.38;100.00
74310;BME280;62722;51.142;17.052;2022-09-09T05:14:52;100155.38;;;13.42;100.00
74310;BME280;62722;51.142;17.052;2022-09-09T05:17:20;100152.63;;;13.44;100.00
74310;BME280;62722;51.142;17.052;2022-09-09T05:19:49;100156.59;;;13.49;100.00
74310;BME280;62722;51.142;17.052;2022-09-09T05:22:18;100155.25;;;13.55;100.00
74310;BME280;62722;51.142;17.052;2022-09-09T05:24:46;100157.31;;;13.62;100.00
74310;BME280;62722;51.142;17.052;2022-09-09T05:27:13;100154.91;;;13.71;100.00
74310;BME280;62722;51.142;17.052;2022-09-09T05:29:40;100160.41;;;13.79;100.00
74310;BME280;62722;51.142;17.052;2022-09-09T05:32:12;100160.88;;;13.84;100.00
74310;BME280;62722;51.142;17.052;2022-09-09T05:34:40;100158.72;;;13.89;100.00
74310;BME280;62722;51.142;17.052;2022-09-09T05:37:07;100162.31;;;13.99;100.00
74310;BME280;62722;51.142;17.052;2022-09-09T05:39:35;100174.34;;;14.03;100.00
74310;BME280;62722;51.142;17.052;2022-09-09T05:42:04;100164.19;;;14.08;100.00
74310;BME280;62722;51.142;17.052;2022-09-09T05:44:31;100170.22;;;14.10;100.00
74310;BME280;62722;51.142;17.052;2022-09-09T05:46:58;100172.38;;;14.16;100.00
74310;BME280;62722;51.142;17.052;2022-09-09T05:49:27;100176.34;;;14.22;100.00
74310;BME280;62722;51.142;17.052;2022-09-09T05:51:54;100174.75;;;14.30;100.00
74310;BME280;62722;51.142;17.052;2022-09-09T05:54:22;100172.59;;;14.35;100.00
74310;BME280;62722;51.142;17.052;2022-09-09T05:56:49;100166.19;;;14.38;100.00
74310;BME280;62722;51.142;17.052;2022-09-09T05:59:16;100165.81;;;14.42;100.00
74310;BME280;62722;51.142;17.052;2022-09-09T06:01:44;100164.59;;;14.46;100.00
74310;BME280;62722;51.142;17.052;2022-09-09T06:04:11;100160.00;;;14.48;100.00
74310;BME280;62722;51.142;17.052;2022-09-09T06:06:40;100165.75;;;14.53;100.00
74310;BME280;62722;51.142;17.052;2022-09-09T06:09:08;100178.78;;;14.56;100.00
74310;BME280;62722;51.142;17.052;2022-09-09T06:11:38;100178.53;;;14.59;100.00
74310;BME280;62722;51.142;17.052;2022-09-09T06:14:06;100170.31;;;14.63;100.00
74310;BME280;62722;51.142;17.052;2022-09-09T06:16:34;100165.59;;;14.66;100.00
74310;BME280;62722;51.142;17.052;2022-09-09T06:19:03;100160.84;;;14.70;100.00
74310;BME280;62722;51.142;17.052;2022-09-09T06:21:31;100153.31;;;14.75;100.00
74310;BME280;62722;51.142;17.052;2022-09-09T06:24:01;100151.38;;;14.77;100.00
74310;BME280;62722;51.142;17.052;2022-09-09T06:26:30;100155.59;;;14.79;100.00
74310;BME280;62722;51.142;17.052;2022-09-09T06:28:59;100137.66;;;14.72;100.00
74310;BME280;62722;51.142;17.052;2022-09-09T06:31:29;100149.63;;;14.87;100.00
74310;BME280;62722;51.142;17.052;2022-09-09T06:33:58;100152.88;;;14.90;100.00
74310;BME280;62722;51.142;17.052;2022-09-09T06:36:27;100155.41;;;14.92;100.00
74310;BME280;62722;51.142;17.052;2022-09-09T06:38:55;100163.56;;;15.00;100.00
74310;BME280;62722;51.142;17.052;2022-09-09T06:41:25;100159.53;;;15.05;100.00
74310;BME280;62722;51.142;17.052;2022-09-09T06:43:53;100165.88;;;15.14;100.00
74310;BME280;62722;51.142;17.052;2022-09-09T06:46:22;100152.34;;;15.17;100.00
74310;BME280;62722;51.142;17.052;2022-09-09T06:48:53;100169.16;;;15.27;100.00
74310;BME280;62722;51.142;17.052;2022-09-09T06:51:23;100166.00;;;15.33;100.00
74310;BME280;62722;51.142;17.052;2022-09-09T06:53:52;100151.69;;;15.34;100.00
74310;BME280;62722;51.142;17.052;2022-09-09T06:56:26;100162.13;;;15.47;100.00
74310;BME280;62722;51.142;17.052;2022-09-09T06:58:57;100168.63;;;15.54;100.00
74310;BME280;62722;51.142;17.052;2022-09-09T07:01:26;100168.91;;;15.61;99.99
74310;BME280;62722;51.142;17.052;2022-09-09T07:03:54;100171.75;;;15.69;99.95
74310;BME280;62722;51.142;17.052;2022-09-09T07:06:24;100173.16;;;15.73;99.37
74310;BME280;62722;51.142;17.052;2022-09-09T07:08:52;100170.22;;;15.76;99.31
74310;BME280;62722;51.142;17.052;2022-09-09T07:11:22;100173.75;;;15.86;99.81
74310;BME280;62722;51.142;17.052;2022-09-09T07:13:50;100175.72;;;15.93;99.46
74310;BME280;62722;51.142;17.052;2022-09-09T07:16:19;100175.34;;;16.07;97.20
74310;BME280;62722;51.142;17.052;2022-09-09T07:18:48;100172.72;;;16.17;95.74
74310;BME280;62722;51.142;17.052;2022-09-09T07:21:16;100182.50;;;16.26;95.84
74310;BME280;62722;51.142;17.052;2022-09-09T07:23:45;100168.94;;;16.29;92.90
74310;BME280;62722;51.142;17.052;2022-09-09T07:26:13;100177.50;;;16.33;95.13
74310;BME280;62722;51.142;17.052;2022-09-09T07:28:42;100172.72;;;16.36;97.12
74310;BME280;62722;51.142;17.052;2022-09-09T07:31:13;100169.34;;;16.34;97.78
74310;BME280;62722;51.142;17.052;2022-09-09T07:33:42;100174.28;;;16.39;96.79
74310;BME280;62722;51.142;17.052;2022-09-09T07:36:13;100174.69;;;16.44;97.38
74310;BME280;62722;51.142;17.052;2022-09-09T07:38:42;100168.66;;;16.42;97.29
74310;BME280;62722;51.142;17.052;2022-09-09T07:41:13;100175.38;;;16.46;94.00
74310;BME280;62722;51.142;17.052;2022-09-09T07:43:41;100177.78;;;16.49;95.92
74310;BME280;62722;51.142;17.052;2022-09-09T07:46:12;100180.31;;;16.50;96.66
74310;BME280;62722;51.142;17.052;2022-09-09T07:48:43;100178.31;;;16.52;93.61
74310;BME280;62722;51.142;17.052;2022-09-09T07:51:12;100189.00;;;16.52;95.54
74310;BME280;62722;51.142;17.052;2022-09-09T07:53:42;100188.84;;;16.54;96.86
74310;BME280;62722;51.142;17.052;2022-09-09T07:56:11;100186.78;;;16.58;94.59
74310;BME280;62722;51.142;17.052;2022-09-09T07:58:40;100190.28;;;16.58;96.21
74310;BME280;62722;51.142;17.052;2022-09-09T08:01:09;100191.81;;;16.61;96.62
74310;BME280;62722;51.142;17.052;2022-09-09T08:03:38;100191.25;;;16.67;97.56
74310;BME280;62722;51.142;17.052;2022-09-09T08:06:08;100185.50;;;16.71;96.38
74310;BME280;62722;51.142;17.052;2022-09-09T08:08:36;100192.81;;;16.79;96.75
74310;BME280;62722;51.142;17.052;2022-09-09T08:11:06;100185.22;;;16.84;93.01
74310;BME280;62722;51.142;17.052;2022-09-09T08:13:35;100194.91;;;16.85;95.52
74310;BME280;62722;51.142;17.052;2022-09-09T08:16:07;100191.53;;;16.83;92.64
74310;BME280;62722;51.142;17.052;2022-09-09T08:18:35;100185.34;;;16.82;95.28
74310;BME280;62722;51.142;17.052;2022-09-09T08:21:09;100193.53;;;16.81;96.07
74310;BME280;62722;51.142;17.052;2022-09-09T08:23:39;100187.72;;;16.85;93.85
74310;BME280;62722;51.142;17.052;2022-09-09T08:26:10;100178.63;;;16.88;92.45
74310;BME280;62722;51.142;17.052;2022-09-09T08:28:37;100186.47;;;16.89;94.84
74310;BME280;62722;51.142;17.052;2022-09-09T08:31:10;100185.38;;;16.92;94.27
74310;BME280;62722;51.142;17.052;2022-09-09T08:33:38;100179.75;;;16.95;95.20
74310;BME280;62722;51.142;17.052;2022-09-09T08:36:06;100174.41;;;16.95;95.98
74310;BME280;62722;51.142;17.052;2022-09-09T08:38:36;100178.47;;;16.99;96.20
74310;BME280;62722;51.142;17.052;2022-09-09T08:41:16;100176.19;;;17.04;95.99
74310;BME280;62722;51.142;17.052;2022-09-09T08:43:50;100177.75;;;17.07;95.51
74310;BME280;62722;51.142;17.052;2022-09-09T08:46:29;100182.38;;;17.14;96.23
74310;BME280;62722;51.142;17.052;2022-09-09T08:49:05;100172.25;;;17.18;95.73
74310;BME280;62722;51.142;17.052;2022-09-09T08:51:38;100184.88;;;17.25;94.87
74310;BME280;62722;51.142;17.052;2022-09-09T08:54:08;100191.97;;;17.34;95.94
74310;BME280;62722;51.142;17.052;2022-09-09T08:56:36;100187.75;;;17.41;94.72
74310;BME280;62722;51.142;17.052;2022-09-09T08:59:03;100198.84;;;17.46;95.59
74310;BME280;62722;51.142;17.052;2022-09-09T09:01:42;100185.06;;;17.51;87.11
74310;BME280;62722;51.142;17.052;2022-09-09T09:04:27;100183.22;;;17.51;89.72
74310;BME280;62722;51.142;17.052;2022-09-09T09:07:08;100193.34;;;17.58;85.23
74310;BME280;62722;51.142;17.052;2022-09-09T09:09:47;100188.19;;;17.74;80.97
74310;BME280;62722;51.142;17.052;2022-09-09T09:12:26;100195.09;;;17.76;87.09
74310;BME280;62722;51.142;17.052;2022-09-09T09:14:54;100196.06;;;17.75;81.92
74310;BME280;62722;51.142;17.052;2022-09-09T09:17:25;100200.88;;;17.72;89.05
74310;BME280;62722;51.142;17.052;2022-09-09T09:19:55;100192.44;;;17.67;88.68
74310;BME280;62722;51.142;17.052;2022-09-09T09:22:31;100198.81;;;17.66;85.03
74310;BME280;62722;51.142;17.052;2022-09-09T09:25:05;100183.75;;;17.65;86.36
74310;BME280;62722;51.142;17.052;2022-09-09T09:27:40;100190.38;;;17.61;88.94
74310;BME280;62722;51.142;17.052;2022-09-09T09:30:14;100191.22;;;17.61;87.13
74310;BME280;62722;51.142;17.052;2022-09-09T09:32:50;100192.00;;;17.71;81.01
74310;BME280;62722;51.142;17.052;2022-09-09T09:35:19;100189.31;;;17.81;79.55
74310;BME280;62722;51.142;17.052;2022-09-09T09:37:47;100200.69;;;17.83;80.38
74310;BME280;62722;51.142;17.052;2022-09-09T09:40:18;100188.41;;;17.90;78.87
74310;BME280;62722;51.142;17.052;2022-09-09T09:42:50;100192.06;;;17.89;79.12
74310;BME280;62722;51.142;17.052;2022-09-09T09:45:26;100189.56;;;17.87;79.59
74310;BME280;62722;51.142;17.052;2022-09-09T09:47:58;100183.91;;;17.90;81.38
74310;BME280;62722;51.142;17.052;2022-09-09T09:50:26;100186.72;;;17.89;84.69
74310;BME280;62722;51.142;17.052;2022-09-09T09:52:54;100194.28;;;17.93;80.32
74310;BME280;62722;51.142;17.052;2022-09-09T09:55:25;100194.91;;;17.87;82.52
74310;BME280;62722;51.142;17.052;2022-09-09T09:57:53;100194.06;;;17.87;84.45
74310;BME280;62722;51.142;17.052;2022-09-09T10:00:22;100194.34;;;17.84;84.25
74310;BME280;62722;51.142;17.052;2022-09-09T10:02:50;100195.75;;;17.88;85.88
74310;BME280;62722;51.142;17.052;2022-09-09T10:05:20;100189.16;;;18.10;75.84
74310;BME280;62722;51.142;17.052;2022-09-09T10:08:00;100191.28;;;18.06;81.22
74310;BME280;62722;51.142;17.052;2022-09-09T10:10:42;100193.66;;;18.09;82.25
74310;BME280;62722;51.142;17.052;2022-09-09T10:13:18;100194.31;;;18.11;84.61
74310;BME280;62722;51.142;17.052;2022-09-09T10:15:52;100199.38;;;18.14;84.33
74310;BME280;62722;51.142;17.052;2022-09-09T10:18:38;100199.75;;;18.19;85.39
74310;BME280;62722;51.142;17.052;2022-09-09T10:21:20;100191.31;;;18.24;83.60
74310;BME280;62722;51.142;17.052;2022-09-09T10:24:03;100198.59;;;18.22;87.38
74310;BME280;62722;51.142;17.052;2022-09-09T10:26:41;100196.41;;;18.17;83.79
74310;BME280;62722;51.142;17.052;2022-09-09T10:29:27;100200.25;;;18.32;74.07
74310;BME280;62722;51.142;17.052;2022-09-09T10:32:10;100185.03;;;18.33;77.50
74310;BME280;62722;51.142;17.052;2022-09-09T10:34:55;100192.16;;;18.42;75.51
74310;BME280;62722;51.142;17.052;2022-09-09T10:37:38;100185.28;;;18.39;79.49
74310;BME280;62722;51.142;17.052;2022-09-09T10:40:24;100186.28;;;18.38;77.58
74310;BME280;62722;51.142;17.052;2022-09-09T10:43:00;100185.38;;;18.65;71.29
74310;BME280;62722;51.142;17.052;2022-09-09T10:45:39;100186.28;;;18.56;75.62
74310;BME280;62722;51.142;17.052;2022-09-09T10:48:19;100195.47;;;18.71;76.73
74310;BME280;62722;51.142;17.052;2022-09-09T10:50:55;100186.66;;;18.79;74.61
74310;BME280;62722;51.142;17.052;2022-09-09T10:53:38;100183.75;;;18.90;72.35
74310;BME280;62722;51.142;17.052;2022-09-09T10:56:10;100181.22;;;18.88;73.29
74310;BME280;62722;51.142;17.052;2022-09-09T10:58:44;100187.50;;;18.79;76.10
74310;BME280;62722;51.142;17.052;2022-09-09T11:01:18;100179.94;;;18.75;70.84
74310;BME280;62722;51.142;17.052;2022-09-09T11:03:53;100184.06;;;18.87;68.78
74310;BME280;62722;51.142;17.052;2022-09-09T11:06:26;100173.06;;;18.90;74.57
74310;BME280;62722;51.142;17.052;2022-09-09T11:08:57;100174.09;;;18.97;69.19
74310;BME280;62722;51.142;17.052;2022-09-09T11:11:29;100177.41;;;18.91;75.17
74310;BME280;62722;51.142;17.052;2022-09-09T11:14:04;100180.88;;;19.09;68.93
74310;BME280;62722;51.142;17.052;2022-09-09T11:16:39;100171.19;;;19.08;69.37
74310;BME280;62722;51.142;17.052;2022-09-09T11:19:13;100179.78;;;19.20;66.45
74310;BME280;62722;51.142;17.052;2022-09-09T11:21:44;100176.91;;;19.13;69.98
74310;BME280;62722;51.142;17.052;2022-09-09T11:24:18;100184.28;;;19.19;69.23
74310;BME280;62722;51.142;17.052;2022-09-09T11:26:52;100168.03;;;19.13;72.40
74310;BME280;62722;51.142;17.052;2022-09-09T11:29:49;100177.84;;;19.30;67.49
74310;BME280;62722;51.142;17.052;2022-09-09T11:33:08;100183.78;;;19.41;65.20
74310;BME280;62722;51.142;17.052;2022-09-09T11:35:47;100177.97;;;19.80;64.18
74310;BME280;62722;51.142;17.052;2022-09-09T11:38:25;100179.31;;;19.84;62.70
74310;BME280;62722;51.142;17.052;2022-09-09T11:40:56;100177.97;;;19.80;66.84
74310;BME280;62722;51.142;17.052;2022-09-09T11:43:28;100174.25;;;19.81;62.15
74310;BME280;62722;51.142;17.052;2022-09-09T11:45:59;100160.91;;;19.89;60.78
74310;BME280;62722;51.142;17.052;2022-09-09T11:48:35;100164.59;;;19.88;66.71
74310;BME280;62722;51.142;17.052;2022-09-09T11:51:06;100171.34;;;20.08;64.05
74310;BME280;62722;51.142;17.052;2022-09-09T11:53:34;100173.88;;;20.18;62.08
74310;BME280;62722;51.142;17.052;2022-09-09T11:56:08;100169.03;;;20.13;66.65
74310;BME280;62722;51.142;17.052;2022-09-09T11:58:44;100171.19;;;20.10;62.41
74310;BME280;62722;51.142;17.052;2022-09-09T12:01:30;100167.69;;;20.17;61.38
74310;BME280;62722;51.142;17.052;2022-09-09T12:04:13;100174.06;;;20.16;64.36
74310;BME280;62722;51.142;17.052;2022-09-09T12:06:43;100167.69;;;20.09;65.30
74310;BME280;62722;51.142;17.052;2022-09-09T12:09:19;100158.94;;;20.07;61.44
74310;BME280;62722;51.142;17.052;2022-09-09T12:11:48;100166.16;;;20.15;61.73
74310;BME280;62722;51.142;17.052;2022-09-09T12:14:21;100165.03;;;20.17;63.68
74310;BME280;62722;51.142;17.052;2022-09-09T12:16:49;100160.19;;;20.29;59.67
74310;BME280;62722;51.142;17.052;2022-09-09T12:19:19;100156.38;;;20.31;59.81
74310;BME280;62722;51.142;17.052;2022-09-09T12:21:57;100161.22;;;20.28;68.29
74310;BME280;62722;51.142;17.052;2022-09-09T12:24:32;100163.34;;;20.24;62.88
74310;BME280;62722;51.142;17.052;2022-09-09T12:27:06;100155.81;;;20.20;65.03
74310;BME280;62722;51.142;17.052;2022-09-09T12:29:40;100155.34;;;20.32;60.54
74310;BME280;62722;51.142;17.052;2022-09-09T12:32:13;100153.19;;;20.36;63.91
74310;BME280;62722;51.142;17.052;2022-09-09T12:34:44;100158.72;;;20.43;60.68
74310;BME280;62722;51.142;17.052;2022-09-09T12:37:23;100155.00;;;20.44;67.46
74310;BME280;62722;51.142;17.052;2022-09-09T12:39:55;100156.38;;;20.48;65.61
74310;BME280;62722;51.142;17.052;2022-09-09T12:42:24;100160.91;;;20.63;66.14
74310;BME280;62722;51.142;17.052;2022-09-09T12:44:56;100154.06;;;20.69;60.94
74310;BME280;62722;51.142;17.052;2022-09-09T12:47:32;100161.41;;;20.75;62.34
74310;BME280;62722;51.142;17.052;2022-09-09T12:50:02;100164.94;;;20.75;64.08
74310;BME280;62722;51.142;17.052;2022-09-09T12:52:31;100178.50;;;20.74;69.03
74310;BME280;62722;51.142;17.052;2022-09-09T12:55:02;100171.28;;;20.66;67.08
74310;BME280;62722;51.142;17.052;2022-09-09T12:57:34;100169.13;;;20.62;60.39
74310;BME280;62722;51.142;17.052;2022-09-09T13:00:11;100162.75;;;20.63;60.76